createdAt,value
2018-03-25T00:01:46.594Z,4.50
2018-03-25T00:04:14.190Z,4.40
2018-03-25T00:06:41.789Z,4.40
2018-03-25T00:09:11.162Z,4.50
2018-03-25T00:11:38.757Z,4.50
2018-03-25T00:14:06.614Z,4.50
2018-03-25T00:16:34.200Z,4.50
2018-03-25T00:19:01.774Z,4.50
2018-03-25T00:21:30.256Z,4.30
2018-03-25T00:23:57.820Z,4.30
2018-03-25T00:26:26.242Z,4.30
2018-03-25T00:28:56.102Z,4.30
2018-03-25T00:31:23.657Z,4.40
2018-03-25T00:33:52.249Z,4.20
2018-03-25T00:36:20.723Z,4.10
2018-03-25T00:38:49.098Z,4.00
2018-03-25T00:41:16.688Z,4.00
2018-03-25T00:43:44.271Z,3.80
2018-03-25T00:46:11.833Z,4.00
2018-03-25T00:48:39.384Z,3.90
2018-03-25T00:51:06.982Z,3.80
2018-03-25T00:53:35.308Z,3.80
2018-03-25T00:56:02.870Z,3.80
2018-03-25T00:58:31.225Z,3.60
2018-03-25T01:00:58.757Z,3.60
2018-03-25T01:03:27.559Z,3.50
2018-03-25T01:05:55.477Z,3.50
2018-03-25T01:08:23.071Z,3.50
2018-03-25T01:10:50.623Z,3.60
2018-03-25T01:13:18.948Z,3.50
2018-03-25T01:15:59.014Z,3.40
2018-03-25T01:18:26.578Z,3.40
2018-03-25T01:20:54.142Z,3.40
2018-03-25T01:23:21.680Z,3.40
2018-03-25T01:25:49.588Z,3.30
2018-03-25T01:28:17.828Z,3.40
2018-03-25T01:30:46.165Z,3.30
2018-03-25T01:33:13.856Z,3.30
2018-03-25T01:35:41.397Z,3.20
2018-03-25T01:38:09.697Z,3.10
2018-03-25T01:40:37.283Z,3.10
2018-03-25T01:43:05.605Z,3.20
2018-03-25T01:45:33.944Z,3.20
2018-03-25T01:48:01.850Z,3.10
2018-03-25T01:50:29.417Z,3.10
2018-03-25T01:52:57.021Z,3.10
2018-03-25T01:55:25.707Z,3.10
2018-03-25T01:57:53.253Z,3.10
2018-03-25T02:00:21.602Z,3.10
2018-03-25T02:05:43.312Z,3.00
2018-03-25T02:08:10.979Z,2.90
2018-03-25T02:10:38.576Z,2.90
2018-03-25T02:13:07.140Z,2.90
2018-03-25T02:15:34.743Z,3.10
2018-03-25T02:18:02.333Z,3.00
2018-03-25T02:20:29.898Z,3.00
2018-03-25T02:22:58.518Z,3.00
2018-03-25T02:25:26.881Z,3.00
2018-03-25T02:27:54.463Z,3.00
2018-03-25T02:30:23.382Z,3.10
2018-03-25T02:32:51.761Z,2.90
2018-03-25T02:35:20.538Z,2.90
2018-03-25T02:37:48.495Z,2.90
2018-03-25T02:40:16.048Z,2.90
2018-03-25T02:42:43.595Z,3.00
2018-03-25T02:45:11.203Z,3.00
2018-03-25T02:47:39.030Z,2.80
2018-03-25T02:50:07.351Z,2.70
2018-03-25T02:52:34.971Z,2.70
2018-03-25T02:55:02.521Z,2.70
2018-03-25T02:57:30.112Z,2.70
2018-03-25T02:59:57.731Z,2.80
2018-03-25T03:02:25.312Z,2.90
2018-03-25T03:04:53.984Z,2.90
2018-03-25T03:07:21.580Z,2.90
2018-03-25T03:09:49.587Z,2.90
2018-03-25T03:12:17.833Z,2.80
2018-03-25T03:14:45.414Z,2.60
2018-03-25T03:17:12.997Z,2.80
2018-03-25T03:19:41.745Z,2.60
2018-03-25T03:22:09.307Z,2.60
2018-03-25T03:24:37.647Z,2.60
2018-03-25T03:27:05.300Z,2.60
2018-03-25T03:29:32.884Z,2.60
2018-03-25T03:32:00.431Z,2.60
2018-03-25T03:34:28.138Z,2.60
2018-03-25T03:36:55.696Z,2.70
2018-03-25T03:39:24.019Z,2.80
2018-03-25T03:41:51.731Z,2.80
2018-03-25T03:44:19.746Z,2.80
2018-03-25T03:46:48.406Z,2.40
2018-03-25T03:49:18.336Z,2.60
2018-03-25T03:51:45.876Z,2.60
2018-03-25T03:54:13.423Z,2.50
2018-03-25T03:56:41.015Z,2.50
2018-03-25T03:59:08.575Z,2.50
2018-03-25T04:01:36.227Z,2.60
2018-03-25T04:04:03.958Z,2.60
2018-03-25T04:06:31.551Z,2.60
2018-03-25T04:08:59.092Z,2.60
2018-03-25T04:11:26.674Z,2.60
2018-03-25T04:13:54.224Z,2.60
2018-03-25T04:16:21.808Z,2.60
2018-03-25T04:18:49.775Z,2.60
2018-03-25T04:21:18.133Z,2.50
2018-03-25T04:23:45.768Z,2.40
2018-03-25T04:26:14.324Z,2.40
2018-03-25T04:28:41.972Z,2.50
2018-03-25T04:31:09.524Z,2.50
2018-03-25T04:33:37.111Z,2.50
2018-03-25T04:36:04.685Z,2.50
2018-03-25T04:38:32.267Z,2.40
2018-03-25T04:40:59.823Z,2.50
2018-03-25T04:43:27.384Z,2.40
2018-03-25T04:45:54.979Z,2.40
2018-03-25T04:48:22.585Z,2.40
2018-03-25T04:50:50.976Z,2.30
2018-03-25T04:53:19.479Z,2.30
2018-03-25T04:55:47.470Z,2.30
2018-03-25T04:58:15.017Z,2.30
2018-03-25T05:00:42.582Z,2.20
2018-03-25T05:03:10.175Z,2.40
2018-03-25T05:05:38.506Z,2.50
2018-03-25T05:08:06.086Z,2.40
2018-03-25T05:10:35.460Z,2.40
2018-03-25T05:13:03.188Z,2.40
2018-03-25T05:15:30.782Z,2.40
2018-03-25T05:17:58.335Z,2.40
2018-03-25T05:20:25.957Z,2.40
2018-03-25T05:22:53.544Z,2.40
2018-03-25T05:25:21.143Z,2.40
2018-03-25T05:27:49.459Z,2.40
2018-03-25T05:30:18.109Z,2.40
2018-03-25T05:32:45.674Z,2.40
2018-03-25T05:35:13.256Z,2.30
2018-03-25T05:37:40.834Z,2.50
2018-03-25T05:40:08.411Z,2.40
2018-03-25T05:42:36.887Z,2.40
2018-03-25T05:45:04.437Z,2.40
2018-03-25T05:47:32.015Z,2.50
2018-03-25T05:49:59.572Z,2.60
2018-03-25T05:52:27.161Z,2.70
2018-03-25T05:54:54.724Z,2.70
2018-03-25T05:57:23.067Z,3.20
2018-03-25T05:59:50.730Z,3.20
2018-03-25T06:02:19.340Z,3.60
2018-03-25T06:04:48.885Z,4.40
2018-03-25T06:07:19.088Z,4.90
2018-03-25T06:09:46.685Z,4.90
2018-03-25T06:12:15.171Z,5.40
2018-03-25T06:14:43.543Z,6.30
2018-03-25T06:17:12.026Z,6.30
2018-03-25T06:19:39.679Z,6.80
2018-03-25T06:22:07.271Z,7.30
2018-03-25T06:24:36.856Z,7.90
2018-03-25T06:27:04.419Z,7.90
2018-03-25T06:29:32.015Z,8.00
2018-03-25T06:31:59.674Z,8.20
2018-03-25T06:34:27.279Z,8.30
2018-03-25T06:36:54.844Z,8.70
2018-03-25T06:39:22.427Z,9.10
2018-03-25T06:41:50.778Z,9.80
2018-03-25T06:44:19.727Z,10.00
2018-03-25T06:46:47.889Z,10.00
2018-03-25T06:49:15.478Z,10.30
2018-03-25T06:51:43.785Z,10.50
2018-03-25T06:54:11.426Z,10.70
2018-03-25T06:56:38.959Z,10.70
2018-03-25T06:59:07.061Z,11.00
2018-03-25T07:01:34.654Z,11.30
2018-03-25T07:04:05.088Z,11.50
2018-03-25T07:06:33.501Z,11.70
2018-03-25T07:09:01.660Z,11.70
2018-03-25T07:11:29.300Z,11.50
2018-03-25T07:13:57.629Z,12.00
2018-03-25T07:16:25.262Z,12.00
2018-03-25T07:18:53.578Z,12.40
2018-03-25T07:21:21.118Z,12.20
2018-03-25T07:23:49.625Z,12.70
2018-03-25T07:26:17.910Z,12.90
2018-03-25T07:28:48.144Z,13.30
2018-03-25T07:31:16.517Z,14.10
2018-03-25T07:33:44.119Z,14.10
2018-03-25T07:36:12.497Z,15.30
2018-03-25T07:38:40.866Z,15.70
2018-03-25T07:41:08.409Z,15.60
2018-03-25T07:43:37.244Z,15.50
2018-03-25T07:46:04.795Z,15.50
2018-03-25T07:48:33.116Z,15.70
2018-03-25T07:51:01.628Z,15.70
2018-03-25T07:53:29.245Z,15.80
2018-03-25T07:55:56.885Z,15.80
2018-03-25T07:58:25.363Z,15.80
2018-03-25T08:00:52.955Z,16.10
2018-03-25T08:03:20.510Z,16.80
2018-03-25T08:05:48.572Z,17.20
2018-03-25T08:08:16.460Z,17.30
2018-03-25T08:10:44.107Z,17.50
2018-03-25T08:13:11.732Z,17.80
2018-03-25T08:15:39.330Z,18.20
2018-03-25T08:18:07.650Z,19.30
2018-03-25T08:20:35.958Z,19.40
2018-03-25T08:23:03.547Z,19.40
2018-03-25T08:25:32.830Z,19.10
2018-03-25T08:28:00.501Z,19.10
2018-03-25T08:30:28.820Z,18.90
2018-03-25T08:32:57.195Z,18.70
2018-03-25T08:35:24.810Z,18.70
2018-03-25T08:37:53.127Z,18.80
2018-03-25T08:40:20.811Z,18.60
2018-03-25T08:42:48.437Z,18.90
2018-03-25T08:45:16.780Z,18.60
2018-03-25T08:47:45.132Z,18.60
2018-03-25T08:50:13.111Z,18.60
2018-03-25T08:52:40.712Z,18.40
2018-03-25T08:55:09.030Z,18.20
2018-03-25T08:57:36.595Z,18.20
2018-03-25T09:00:04.644Z,18.10
2018-03-25T09:02:32.216Z,18.20
2018-03-25T09:04:59.742Z,17.90
2018-03-25T09:07:28.085Z,18.00
2018-03-25T09:09:55.626Z,18.00
2018-03-25T09:12:23.248Z,18.00
2018-03-25T09:14:50.795Z,18.30
2018-03-25T09:17:19.137Z,18.00
2018-03-25T09:19:46.687Z,17.90
2018-03-25T09:22:14.227Z,17.70
2018-03-25T09:24:41.808Z,17.30
2018-03-25T09:27:09.344Z,16.70
2018-03-25T09:29:36.930Z,16.40
2018-03-25T09:32:04.475Z,16.80
2018-03-25T09:34:32.873Z,17.50
2018-03-25T09:37:00.423Z,17.50
2018-03-25T09:39:27.984Z,17.10
2018-03-25T09:41:55.519Z,17.60
2018-03-25T09:44:24.212Z,18.40
2018-03-25T09:46:52.538Z,18.70
2018-03-25T09:49:20.851Z,19.10
2018-03-25T09:51:48.429Z,19.10
2018-03-25T09:54:15.983Z,19.60
2018-03-25T09:56:43.552Z,20.40
2018-03-25T09:59:11.083Z,21.40
2018-03-25T10:01:44.292Z,21.90
2018-03-25T10:04:11.826Z,21.50
2018-03-25T10:06:39.394Z,21.80
2018-03-25T10:09:06.964Z,21.80
2018-03-25T10:11:35.285Z,21.70
2018-03-25T10:14:03.645Z,21.90
2018-03-25T10:16:31.963Z,22.10
2018-03-25T10:18:59.587Z,22.10
2018-03-25T10:21:27.100Z,22.30
2018-03-25T10:23:54.673Z,22.70
2018-03-25T10:26:23.838Z,23.10
2018-03-25T10:28:51.427Z,23.10
2018-03-25T10:31:19.018Z,23.00
2018-03-25T10:33:47.412Z,24.10
2018-03-25T10:36:14.979Z,24.10
2018-03-25T10:38:42.540Z,24.90
2018-03-25T10:41:11.108Z,24.60
2018-03-25T10:43:38.803Z,25.30
2018-03-25T10:46:06.534Z,25.60
2018-03-25T10:48:36.169Z,25.50
2018-03-25T10:51:03.769Z,25.70
2018-03-25T10:53:31.385Z,26.10
2018-03-25T10:55:59.898Z,25.80
2018-03-25T10:58:27.491Z,26.60
2018-03-25T11:00:55.822Z,26.80
2018-03-25T11:03:24.166Z,26.40
2018-03-25T11:05:51.799Z,26.40
2018-03-25T11:08:20.130Z,27.00
2018-03-25T11:10:47.676Z,27.00
2018-03-25T11:13:15.227Z,27.20
2018-03-25T11:15:42.835Z,27.10
2018-03-25T11:18:10.400Z,27.10
2018-03-25T11:20:38.741Z,26.80
2018-03-25T11:23:06.298Z,26.70
2018-03-25T11:25:33.864Z,25.80
2018-03-25T11:28:02.382Z,24.00
2018-03-25T11:30:30.754Z,20.70
2018-03-25T11:32:59.075Z,19.40
2018-03-25T11:35:26.665Z,19.30
2018-03-25T11:37:54.300Z,18.60
2018-03-25T11:40:21.879Z,17.80
2018-03-25T11:42:49.971Z,17.10
2018-03-25T11:45:18.446Z,15.90
2018-03-25T11:47:46.385Z,15.80
2018-03-25T11:50:13.959Z,15.50
2018-03-25T11:52:41.544Z,15.20
2018-03-25T11:55:10.064Z,15.00
2018-03-25T11:57:37.614Z,15.00
2018-03-25T12:00:05.379Z,14.80
2018-03-25T12:02:33.054Z,14.80
2018-03-25T12:05:00.636Z,14.70
2018-03-25T12:07:28.202Z,14.70
2018-03-25T12:09:55.770Z,14.60
2018-03-25T12:12:24.396Z,14.40
2018-03-25T12:14:51.961Z,14.30
2018-03-25T12:17:19.556Z,14.20
2018-03-25T12:19:47.134Z,14.10
2018-03-25T12:22:14.747Z,14.00
2018-03-25T12:24:43.295Z,14.10
2018-03-25T12:27:12.625Z,13.90
2018-03-25T12:29:40.328Z,13.90
2018-03-25T12:32:07.879Z,13.90
2018-03-25T12:34:35.464Z,13.90
2018-03-25T12:37:03.791Z,14.10
2018-03-25T12:39:31.402Z,14.10
2018-03-25T12:41:59.715Z,14.00
2018-03-25T12:44:49.443Z,14.00
2018-03-25T12:47:17.323Z,14.00
2018-03-25T12:49:45.660Z,13.90
2018-03-25T12:52:13.261Z,13.90
2018-03-25T12:54:41.639Z,14.00
2018-03-25T12:57:09.215Z,14.00
2018-03-25T12:59:36.780Z,14.00
2018-03-25T13:02:05.330Z,14.10
2018-03-25T13:04:33.624Z,14.10
2018-03-25T13:07:01.211Z,14.10
2018-03-25T13:09:28.778Z,14.10
2018-03-25T13:11:57.262Z,14.20
2018-03-25T13:14:24.837Z,14.10
2018-03-25T13:16:53.924Z,14.10
2018-03-25T13:19:21.523Z,14.10
2018-03-25T13:21:49.864Z,14.00
2018-03-25T13:24:17.454Z,14.00
2018-03-25T13:26:46.761Z,14.00
2018-03-25T13:29:15.084Z,13.90
2018-03-25T13:31:42.686Z,13.90
2018-03-25T13:34:10.251Z,13.80
2018-03-25T13:36:38.564Z,13.70
2018-03-25T13:39:06.153Z,13.70
2018-03-25T13:41:33.724Z,13.70
2018-03-25T13:44:01.302Z,13.80
2018-03-25T13:46:29.614Z,13.80
2018-03-25T13:48:57.171Z,13.80
2018-03-25T13:51:24.737Z,13.80
2018-03-25T13:53:52.859Z,13.70
2018-03-25T13:56:22.129Z,13.60
2018-03-25T13:58:49.681Z,13.60
2018-03-25T14:01:17.333Z,13.60
2018-03-25T14:03:45.687Z,13.70
2018-03-25T14:06:13.297Z,13.70
2018-03-25T14:08:40.865Z,13.70
2018-03-25T14:11:09.279Z,13.60
2018-03-25T14:13:36.850Z,13.60
2018-03-25T14:16:04.431Z,13.60
2018-03-25T14:18:32.033Z,13.60
2018-03-25T14:21:00.349Z,13.60
2018-03-25T14:23:27.928Z,13.60
2018-03-25T14:25:55.510Z,13.70
2018-03-25T14:28:23.839Z,13.60
2018-03-25T14:30:51.545Z,13.70
2018-03-25T14:33:19.122Z,13.60
2018-03-25T14:35:49.426Z,13.50
2018-03-25T14:38:17.880Z,13.50
2018-03-25T14:40:45.451Z,13.50
2018-03-25T14:43:13.010Z,13.50
2018-03-25T14:45:42.154Z,13.50
2018-03-25T14:48:10.711Z,13.50
2018-03-25T14:50:39.120Z,13.50
2018-03-25T14:53:06.675Z,13.40
2018-03-25T14:55:35.292Z,13.50
2018-03-25T14:58:02.879Z,13.60
2018-03-25T15:00:33.566Z,13.60
2018-03-25T15:03:01.166Z,13.50
2018-03-25T15:05:33.802Z,13.50
2018-03-25T15:08:01.403Z,13.60
2018-03-25T15:10:29.846Z,13.40
2018-03-25T15:12:57.401Z,13.50
2018-03-25T15:15:24.980Z,13.40
2018-03-25T15:17:52.650Z,13.50
2018-03-25T15:20:23.204Z,13.50
2018-03-25T15:22:52.526Z,13.40
2018-03-25T15:25:20.081Z,13.40
2018-03-25T15:27:47.639Z,13.40
2018-03-25T15:30:15.187Z,13.30
2018-03-25T15:32:45.509Z,13.20
2018-03-25T15:35:15.862Z,13.10
2018-03-25T15:37:43.414Z,13.10
2018-03-25T15:40:12.058Z,13.10
2018-03-25T15:42:40.395Z,13.10
2018-03-25T15:45:07.983Z,13.10
2018-03-25T15:47:35.870Z,13.00
2018-03-25T15:50:03.739Z,13.00
2018-03-25T15:52:31.291Z,12.90
2018-03-25T15:54:59.669Z,12.90
2018-03-25T15:57:27.988Z,12.80
2018-03-25T15:59:55.767Z,12.80
2018-03-25T16:02:23.381Z,12.80
2018-03-25T16:04:50.941Z,12.80
2018-03-25T16:07:18.524Z,12.80
2018-03-25T16:09:46.105Z,12.80
2018-03-25T16:12:14.665Z,12.80
2018-03-25T16:14:42.351Z,12.80
2018-03-25T16:17:10.124Z,12.80
2018-03-25T16:19:42.017Z,12.70
2018-03-25T16:22:09.653Z,12.80
2018-03-25T16:24:38.001Z,12.70
2018-03-25T16:27:05.642Z,12.70
2018-03-25T16:29:33.295Z,12.70
2018-03-25T16:32:00.968Z,12.60
2018-03-25T16:34:28.530Z,12.60
2018-03-25T16:36:56.100Z,12.50
2018-03-25T16:39:24.678Z,12.60
2018-03-25T16:41:52.268Z,12.50
2018-03-25T16:44:20.757Z,12.50
2018-03-25T16:46:49.189Z,12.40
2018-03-25T16:49:16.817Z,12.40
2018-03-25T16:51:48.269Z,12.40
2018-03-25T16:54:15.871Z,12.30
2018-03-25T16:56:43.427Z,12.30
2018-03-25T16:59:11.011Z,12.20
2018-03-25T17:01:38.590Z,12.20
2018-03-25T17:04:06.223Z,12.20
2018-03-25T17:06:34.730Z,12.10
2018-03-25T17:09:02.678Z,12.10
2018-03-25T17:11:30.364Z,12.10
2018-03-25T17:13:58.720Z,12.00
2018-03-25T17:16:27.376Z,11.90
2018-03-25T17:18:54.929Z,11.90
2018-03-25T17:21:22.723Z,11.90
2018-03-25T17:23:50.360Z,11.80
2018-03-25T17:26:17.989Z,11.70
2018-03-25T17:28:47.110Z,11.60
2018-03-25T17:31:15.655Z,11.50
2018-03-25T17:33:44.157Z,11.30
2018-03-25T17:36:11.780Z,11.30
2018-03-25T17:38:39.367Z,11.20
2018-03-25T17:41:07.940Z,11.10
2018-03-25T17:43:35.531Z,11.00
2018-03-25T17:46:04.056Z,11.00
2018-03-25T17:48:31.996Z,11.00
2018-03-25T17:51:00.504Z,10.90
2018-03-25T17:53:28.191Z,10.90
2018-03-25T17:55:56.747Z,10.80
2018-03-25T17:58:26.074Z,10.80
2018-03-25T18:01:12.303Z,10.70
2018-03-25T18:03:41.244Z,10.80
2018-03-25T18:06:09.834Z,10.80
2018-03-25T18:08:38.385Z,10.70
2018-03-25T18:11:06.905Z,10.70
2018-03-25T18:13:34.581Z,10.70
2018-03-25T18:16:02.173Z,10.70
2018-03-25T18:18:29.747Z,10.70
2018-03-25T18:20:57.351Z,10.80
2018-03-25T18:23:24.939Z,10.80
2018-03-25T18:25:52.904Z,10.60
2018-03-25T18:28:21.435Z,10.60
2018-03-25T18:30:50.722Z,10.50
2018-03-25T18:33:19.167Z,10.30
2018-03-25T18:35:48.265Z,10.40
2018-03-25T18:38:15.879Z,10.40
2018-03-25T18:40:47.291Z,10.40
2018-03-25T18:43:15.695Z,10.20
2018-03-25T18:45:43.304Z,10.20
2018-03-25T18:48:11.842Z,10.20
2018-03-25T18:50:40.926Z,10.10
2018-03-25T18:53:10.251Z,10.10
2018-03-25T18:55:37.979Z,10.10
2018-03-25T18:58:06.014Z,10.10
2018-03-25T19:00:39.141Z,10.10
2018-03-25T19:03:08.200Z,10.10
2018-03-25T19:05:35.832Z,10.10
2018-03-25T19:08:03.425Z,10.10
2018-03-25T19:10:33.135Z,10.10
2018-03-25T19:13:00.706Z,10.10
2018-03-25T19:15:30.049Z,10.00
2018-03-25T19:17:57.598Z,10.00
2018-03-25T19:20:25.382Z,10.00
2018-03-25T19:22:53.911Z,9.90
2018-03-25T19:25:23.444Z,9.90
2018-03-25T19:27:51.076Z,9.80
2018-03-25T19:30:19.453Z,9.70
2018-03-25T19:32:47.986Z,9.80
2018-03-25T19:35:15.543Z,9.70
2018-03-25T19:37:43.137Z,9.70
2018-03-25T19:40:10.697Z,9.70
2018-03-25T19:42:39.220Z,9.70
2018-03-25T19:45:06.807Z,9.70
2018-03-25T19:47:34.380Z,9.60
2018-03-25T19:50:02.699Z,9.60
2018-03-25T19:52:32.016Z,9.60
2018-03-25T19:54:59.624Z,9.50
2018-03-25T19:57:27.207Z,9.50
2018-03-25T19:59:55.646Z,9.40
2018-03-25T20:02:23.256Z,9.30
2018-03-25T20:04:50.876Z,9.30
2018-03-25T20:07:18.478Z,9.30
2018-03-25T20:09:46.049Z,9.30
2018-03-25T20:12:13.669Z,9.40
2018-03-25T20:14:41.240Z,9.40
2018-03-25T20:17:09.566Z,9.30
2018-03-25T20:19:38.175Z,9.30
2018-03-25T20:22:06.691Z,9.30
2018-03-25T20:24:35.042Z,9.10
2018-03-25T20:27:02.591Z,9.10
2018-03-25T20:29:30.199Z,9.10
2018-03-25T20:31:57.822Z,9.00
2018-03-25T20:34:25.449Z,9.00
2018-03-25T20:36:53.051Z,9.00
2018-03-25T20:39:21.361Z,8.90
2018-03-25T20:41:48.930Z,8.80
2018-03-25T20:44:18.483Z,8.80
2018-03-25T20:46:47.892Z,8.70
2018-03-25T20:49:16.243Z,8.70
2018-03-25T20:51:44.187Z,8.60
2018-03-25T20:54:11.837Z,8.50
2018-03-25T20:56:39.397Z,8.60
2018-03-25T20:59:07.089Z,8.50
2018-03-25T21:01:34.739Z,8.50
2018-03-25T21:04:03.247Z,8.50
2018-03-25T21:06:30.830Z,8.40
2018-03-25T21:08:58.526Z,8.30
2018-03-25T21:11:26.095Z,8.20
2018-03-25T21:13:53.687Z,8.40
2018-03-25T21:16:22.090Z,8.10
2018-03-25T21:18:49.636Z,8.10
2018-03-25T21:21:18.020Z,8.00
2018-03-25T21:23:45.576Z,8.00
2018-03-25T21:26:15.198Z,8.00
2018-03-25T21:28:42.762Z,7.90
2018-03-25T21:31:10.391Z,7.90
2018-03-25T21:33:37.964Z,7.90
2018-03-25T21:36:05.522Z,7.80
2018-03-25T21:38:33.089Z,7.70
2018-03-25T21:41:01.619Z,7.70
2018-03-25T21:43:29.210Z,7.70
2018-03-25T21:45:57.519Z,7.70
2018-03-25T21:48:25.146Z,7.70
2018-03-25T21:50:53.445Z,7.60
2018-03-25T21:53:21.049Z,7.60
2018-03-25T21:55:48.646Z,7.60
2018-03-25T21:58:16.220Z,7.60
2018-03-25T22:00:43.808Z,7.60
2018-03-25T22:03:11.372Z,7.60
2018-03-25T22:05:38.984Z,7.60
2018-03-25T22:08:06.572Z,7.80
2018-03-25T22:10:34.210Z,7.80
2018-03-25T22:13:02.810Z,7.80
2018-03-25T22:15:30.364Z,7.80
2018-03-25T22:18:01.896Z,7.90
2018-03-25T22:20:29.492Z,7.90
2018-03-25T22:22:57.999Z,8.00
2018-03-25T22:25:25.550Z,8.00
2018-03-25T22:27:53.116Z,8.10
2018-03-25T22:30:20.693Z,8.00
2018-03-25T22:32:49.143Z,8.00
2018-03-25T22:35:16.803Z,8.00
2018-03-25T22:37:44.406Z,8.00
2018-03-25T22:40:13.251Z,8.10
2018-03-25T22:42:40.835Z,8.10
2018-03-25T22:45:08.384Z,8.10
2018-03-25T22:47:36.069Z,8.20
2018-03-25T22:50:04.373Z,8.00
2018-03-25T22:52:31.925Z,8.00
2018-03-25T22:54:59.813Z,7.90
2018-03-25T22:57:27.363Z,7.90
2018-03-25T22:59:54.899Z,7.80
2018-03-25T23:02:22.463Z,7.90
2018-03-25T23:04:50.034Z,7.90
2018-03-25T23:07:17.619Z,7.90
2018-03-25T23:09:45.178Z,7.80
2018-03-25T23:12:12.858Z,7.80
2018-03-25T23:14:40.435Z,7.80
2018-03-25T23:17:08.795Z,7.80
2018-03-25T23:19:36.348Z,7.80
2018-03-25T23:22:03.946Z,7.80
2018-03-25T23:24:31.486Z,7.80
2018-03-25T23:27:00.760Z,7.80
2018-03-25T23:29:28.474Z,7.80
2018-03-25T23:31:56.024Z,7.80
2018-03-25T23:34:24.554Z,7.80
2018-03-25T23:36:52.850Z,7.90
2018-03-25T23:39:21.161Z,8.00
2018-03-25T23:41:49.701Z,8.00
2018-03-25T23:44:17.298Z,8.00
2018-03-25T23:46:44.835Z,7.90
2018-03-25T23:49:13.147Z,7.90
2018-03-25T23:51:40.790Z,7.90
2018-03-25T23:54:08.326Z,7.70
2018-03-25T23:56:36.629Z,7.70
2018-03-25T23:59:04.228Z,7.70
